createdAt,value
2018-07-09T00:01:11.061Z,15.52
2018-07-09T00:03:40.361Z,15.48
2018-07-09T00:06:09.722Z,15.51
2018-07-09T00:08:38.859Z,15.30
2018-07-09T00:11:08.698Z,15.18
2018-07-09T00:13:38.633Z,15.18
2018-07-09T00:16:08.143Z,15.27
2018-07-09T00:18:37.237Z,15.02
2018-07-09T00:21:06.536Z,14.81
2018-07-09T00:23:36.549Z,14.63
2018-07-09T00:26:06.259Z,14.62
2018-07-09T00:28:35.633Z,14.61
2018-07-09T00:31:04.817Z,14.62
2018-07-09T00:33:34.138Z,14.63
2018-07-09T00:36:03.516Z,14.74
2018-07-09T00:38:32.617Z,14.78
2018-07-09T00:47:45.837Z,14.74
2018-07-09T00:50:15.525Z,14.75
2018-07-09T00:52:45.116Z,14.68
2018-07-09T00:55:14.556Z,14.75
2018-07-09T00:57:44.189Z,14.65
2018-07-09T01:00:13.579Z,14.58
2018-07-09T01:02:42.721Z,14.55
2018-07-09T01:05:11.865Z,14.54
2018-07-09T01:07:41.270Z,14.58
2018-07-09T01:10:10.616Z,14.59
2018-07-09T01:12:40.642Z,14.49
2018-07-09T01:15:09.669Z,14.49
2018-07-09T01:17:38.736Z,14.48
2018-07-09T01:20:08.196Z,14.43
2018-07-09T01:22:37.328Z,14.40
2018-07-09T01:25:07.081Z,14.36
2018-07-09T01:27:37.924Z,14.32
2018-07-09T01:30:13.760Z,14.24
2018-07-09T01:32:43.185Z,14.17
2018-07-09T01:35:13.297Z,14.14
2018-07-09T01:37:42.873Z,14.09
2018-07-09T01:40:12.081Z,14.12
2018-07-09T01:42:41.213Z,14.09
2018-07-09T01:45:10.293Z,14.07
2018-07-09T01:47:39.443Z,14.02
2018-07-09T01:50:08.560Z,13.97
2018-07-09T01:52:37.671Z,13.94
2018-07-09T01:55:06.996Z,13.89
2018-07-09T01:57:36.148Z,13.80
2018-07-09T02:00:05.689Z,13.78
2018-07-09T02:02:35.317Z,13.77
2018-07-09T02:05:04.392Z,13.76
2018-07-09T02:07:33.560Z,13.75
2018-07-09T02:10:02.950Z,13.75
2018-07-09T02:12:32.190Z,13.64
2018-07-09T02:15:01.481Z,13.69
2018-07-09T02:17:30.961Z,13.69
2018-07-09T02:20:00.081Z,13.64
2018-07-09T02:22:29.176Z,13.52
2018-07-09T02:24:58.400Z,13.52
2018-07-09T02:27:27.492Z,13.50
2018-07-09T02:29:56.609Z,13.51
2018-07-09T02:32:26.125Z,13.55
2018-07-09T02:34:55.250Z,13.52
2018-07-09T02:37:24.417Z,13.46
2018-07-09T02:39:54.112Z,13.38
2018-07-09T02:42:23.301Z,13.29
2018-07-09T02:44:52.412Z,13.28
2018-07-09T02:47:21.757Z,13.35
2018-07-09T02:49:51.068Z,13.39
2018-07-09T02:52:20.421Z,13.37
2018-07-09T02:54:50.074Z,13.36
2018-07-09T02:57:19.206Z,13.34
2018-07-09T02:59:48.373Z,13.27
2018-07-09T03:02:17.869Z,13.28
2018-07-09T03:04:47.277Z,13.24
2018-07-09T03:07:16.362Z,13.13
2018-07-09T03:09:46.030Z,13.11
2018-07-09T03:12:15.160Z,13.14
2018-07-09T03:14:45.601Z,13.05
2018-07-09T03:17:15.191Z,13.08
2018-07-09T03:19:44.345Z,13.06
2018-07-09T03:22:13.485Z,13.05
2018-07-09T03:24:42.888Z,13.04
2018-07-09T03:27:12.006Z,13.07
2018-07-09T03:29:41.164Z,13.03
2018-07-09T03:32:10.449Z,13.00
2018-07-09T03:34:39.588Z,13.03
2018-07-09T03:37:08.724Z,13.03
2018-07-09T03:39:40.285Z,13.00
2018-07-09T03:42:09.457Z,13.03
2018-07-09T03:44:38.594Z,12.96
2018-07-09T03:47:07.974Z,12.97
2018-07-09T03:49:38.093Z,12.94
2018-07-09T03:52:07.378Z,13.01
2018-07-09T03:54:36.908Z,12.95
2018-07-09T03:57:06.172Z,12.89
2018-07-09T03:59:35.772Z,12.87
2018-07-09T04:02:05.424Z,12.80
2018-07-09T04:04:34.498Z,12.79
2018-07-09T04:07:04.646Z,12.88
2018-07-09T04:09:33.724Z,12.93
2018-07-09T04:12:02.793Z,12.94
2018-07-09T04:14:31.888Z,12.93
2018-07-09T04:17:01.050Z,12.96
2018-07-09T04:19:30.196Z,13.04
2018-07-09T04:21:59.646Z,13.06
2018-07-09T04:24:28.664Z,13.21
2018-07-09T04:26:57.789Z,13.29
2018-07-09T04:29:27.216Z,13.38
2018-07-09T04:31:56.822Z,13.55
2018-07-09T04:34:25.977Z,13.54
2018-07-09T04:36:55.349Z,13.59
2018-07-09T04:39:24.397Z,13.60
2018-07-09T04:41:53.522Z,13.67
2018-07-09T04:44:22.952Z,13.73
2018-07-09T04:46:52.042Z,13.77
2018-07-09T04:49:21.164Z,13.95
2018-07-09T04:51:50.613Z,14.05
2018-07-09T04:54:19.725Z,14.11
2018-07-09T04:56:48.917Z,14.19
2018-07-09T04:59:18.305Z,14.24
2018-07-09T05:01:47.368Z,14.37
2018-07-09T05:04:16.512Z,14.51
2018-07-09T05:06:45.877Z,14.64
2018-07-09T05:09:15.838Z,14.78
2018-07-09T05:11:44.951Z,15.07
2018-07-09T05:14:14.066Z,15.22
2018-07-09T05:16:43.137Z,15.42
2018-07-09T05:19:12.222Z,15.47
2018-07-09T05:21:42.022Z,15.69
2018-07-09T05:24:11.199Z,15.87
2018-07-09T05:26:40.315Z,16.06
2018-07-09T05:29:09.465Z,16.25
2018-07-09T05:31:38.520Z,16.48
2018-07-09T05:34:08.705Z,16.62
2018-07-09T05:36:37.788Z,16.75
2018-07-09T05:39:07.088Z,16.84
2018-07-09T05:41:36.745Z,17.00
2018-07-09T05:44:05.842Z,17.15
2018-07-09T05:46:35.029Z,17.35
2018-07-09T05:49:04.512Z,17.46
2018-07-09T05:51:33.646Z,17.68
2018-07-09T05:54:02.782Z,17.79
2018-07-09T05:56:32.298Z,17.93
2018-07-09T05:59:01.569Z,18.06
2018-07-09T06:01:30.614Z,18.20
2018-07-09T06:04:00.013Z,18.36
2018-07-09T06:06:29.185Z,18.51
2018-07-09T06:08:58.288Z,18.76
2018-07-09T06:11:27.458Z,18.96
2018-07-09T06:13:56.585Z,19.22
2018-07-09T06:16:26.629Z,19.44
2018-07-09T06:18:56.664Z,19.29
2018-07-09T06:21:25.814Z,19.08
2018-07-09T06:23:54.973Z,19.15
2018-07-09T06:26:24.382Z,19.39
2018-07-09T06:28:53.656Z,19.69
2018-07-09T06:31:23.199Z,19.70
2018-07-09T06:33:52.361Z,20.14
2018-07-09T06:36:21.445Z,20.65
2018-07-09T06:38:50.707Z,21.14
2018-07-09T06:41:20.829Z,21.31
2018-07-09T06:43:51.141Z,21.39
2018-07-09T06:46:20.196Z,21.18
2018-07-09T06:48:54.715Z,20.96
2018-07-09T06:51:23.833Z,20.88
2018-07-09T06:53:53.941Z,20.99
2018-07-09T06:56:23.821Z,21.27
2018-07-09T06:58:52.946Z,21.13
2018-07-09T07:01:22.033Z,20.88
2018-07-09T07:03:51.425Z,20.86
2018-07-09T07:06:21.040Z,21.10
2018-07-09T07:08:50.331Z,21.79
2018-07-09T07:11:20.344Z,22.07
2018-07-09T07:13:50.181Z,22.32
2018-07-09T07:16:19.248Z,22.18
2018-07-09T07:18:49.996Z,22.50
2018-07-09T07:21:19.293Z,22.81
2018-07-09T07:23:48.399Z,23.16
2018-07-09T07:27:47.171Z,23.08
2018-07-09T07:30:16.675Z,23.77
2018-07-09T07:32:45.898Z,24.59
2018-07-09T07:35:15.317Z,25.35
2018-07-09T07:37:44.437Z,26.12
2018-07-09T07:40:14.305Z,27.72
2018-07-09T07:42:43.850Z,29.94
2018-07-09T07:45:13.801Z,31.18
2018-07-09T07:47:42.957Z,34.58
2018-07-09T07:50:12.818Z,36.77
2018-07-09T07:52:42.165Z,37.69
2018-07-09T07:55:11.265Z,35.31
2018-07-09T07:57:40.418Z,32.22
2018-07-09T08:00:10.604Z,35.06
2018-07-09T08:02:40.058Z,37.99
2018-07-09T08:05:10.065Z,34.32
2018-07-09T08:07:39.144Z,32.39
2018-07-09T08:10:09.141Z,32.91
2018-07-09T08:15:08.791Z,38.16
2018-07-09T08:17:38.749Z,39.73
2018-07-09T08:20:09.772Z,39.99
2018-07-09T08:22:38.909Z,42.27
2018-07-09T08:25:08.261Z,42.62
2018-07-09T08:27:38.107Z,42.14
2018-07-09T08:30:08.072Z,41.66
2018-07-09T08:32:37.928Z,42.15
2018-07-09T08:35:07.538Z,38.88
2018-07-09T08:37:36.741Z,37.43
2018-07-09T08:40:05.820Z,39.58
2018-07-09T08:42:35.335Z,39.77
2018-07-09T08:45:04.746Z,41.74
2018-07-09T08:47:37.322Z,42.47
2018-07-09T08:50:06.667Z,38.40
2018-07-09T08:52:35.805Z,38.33
2018-07-09T08:55:05.927Z,37.78
2018-07-09T08:57:36.054Z,38.11
2018-07-09T09:00:05.186Z,35.86
2018-07-09T09:02:34.411Z,39.06
2018-07-09T09:05:03.823Z,38.18
2018-07-09T09:07:33.266Z,38.99
2018-07-09T09:10:02.576Z,41.38
2018-07-09T09:12:31.919Z,41.80
2018-07-09T09:15:01.289Z,38.30
2018-07-09T09:17:30.409Z,36.98
2018-07-09T09:19:59.811Z,40.37
2018-07-09T09:22:29.873Z,38.61
2018-07-09T09:24:59.033Z,39.38
2018-07-09T09:27:28.122Z,38.20
2018-07-09T09:29:58.258Z,38.12
2018-07-09T09:32:27.382Z,40.50
2018-07-09T09:34:56.486Z,41.17
2018-07-09T09:37:25.670Z,42.01
2018-07-09T09:39:54.747Z,39.53
2018-07-09T09:42:23.940Z,38.30
2018-07-09T09:44:53.446Z,36.95
2018-07-09T09:47:22.606Z,37.43
2018-07-09T09:49:51.817Z,38.12
2018-07-09T09:52:21.374Z,36.80
2018-07-09T09:54:50.883Z,35.76
2018-07-09T09:57:20.821Z,36.99
2018-07-09T09:59:51.189Z,40.06
2018-07-09T10:02:20.312Z,39.59
2018-07-09T10:04:49.510Z,41.54
2018-07-09T10:07:18.675Z,40.68
2018-07-09T10:09:48.144Z,43.02
2018-07-09T10:12:17.326Z,41.97
2018-07-09T10:14:47.712Z,40.68
2018-07-09T10:17:16.786Z,41.08
2018-07-09T10:19:45.904Z,39.38
2018-07-09T10:22:15.434Z,40.97
2018-07-09T10:24:44.604Z,42.00
2018-07-09T10:27:13.745Z,38.02
2018-07-09T10:29:44.597Z,39.05
2018-07-09T10:32:14.388Z,38.39
2018-07-09T10:34:43.817Z,34.34
2018-07-09T10:37:12.990Z,35.09
2018-07-09T10:39:42.795Z,36.89
2018-07-09T10:42:11.994Z,37.68
2018-07-09T10:44:42.012Z,37.66
2018-07-09T10:47:11.243Z,37.63
2018-07-09T10:49:40.699Z,35.64
2018-07-09T10:52:10.141Z,38.05
2018-07-09T10:54:39.771Z,37.57
2018-07-09T10:57:09.152Z,38.83
2018-07-09T10:59:38.362Z,39.47
2018-07-09T11:02:07.545Z,39.96
2018-07-09T11:04:36.647Z,40.12
2018-07-09T11:07:05.892Z,41.09
2018-07-09T11:09:35.851Z,40.55
2018-07-09T11:12:05.868Z,41.28
2018-07-09T11:14:36.402Z,41.86
2018-07-09T11:17:05.629Z,40.61
2018-07-09T11:19:35.520Z,39.55
2018-07-09T11:22:06.563Z,36.20
2018-07-09T11:24:35.925Z,35.45
2018-07-09T11:27:05.375Z,32.89
2018-07-09T11:29:34.971Z,34.76
2018-07-09T11:32:04.808Z,35.73
2018-07-09T11:34:34.026Z,37.00
2018-07-09T11:37:04.197Z,38.06
2018-07-09T11:39:33.397Z,37.09
2018-07-09T11:42:02.718Z,36.19
2018-07-09T11:44:32.274Z,36.30
2018-07-09T11:47:02.663Z,36.85
2018-07-09T11:49:31.965Z,37.62
2018-07-09T11:52:01.989Z,37.07
2018-07-09T11:54:31.985Z,36.37
2018-07-09T11:57:01.171Z,36.93
2018-07-09T11:59:30.766Z,37.73
2018-07-09T12:02:00.071Z,38.70
2018-07-09T12:04:29.282Z,38.19
2018-07-09T12:06:59.354Z,38.66
2018-07-09T12:09:28.551Z,38.70
2018-07-09T12:11:57.715Z,36.24
2018-07-09T12:14:26.894Z,36.89
2018-07-09T12:16:56.102Z,37.61
2018-07-09T12:19:25.468Z,38.31
2018-07-09T12:21:56.046Z,37.29
2018-07-09T12:24:25.226Z,34.13
2018-07-09T12:26:55.504Z,33.92
2018-07-09T12:29:25.965Z,34.40
2018-07-09T12:31:56.224Z,34.88
2018-07-09T12:34:26.670Z,36.03
2018-07-09T12:36:55.823Z,36.95
2018-07-09T12:39:25.622Z,36.69
2018-07-09T12:41:55.225Z,37.19
2018-07-09T12:44:24.522Z,38.42
2018-07-09T12:46:56.568Z,36.30
2018-07-09T12:49:27.111Z,36.64
2018-07-09T12:58:43.033Z,36.03
2018-07-09T13:01:12.274Z,37.38
2018-07-09T13:03:42.527Z,36.41
2018-07-09T13:06:12.022Z,36.70
2018-07-09T13:08:43.657Z,35.33
2018-07-09T13:11:14.257Z,36.34
2018-07-09T13:13:46.040Z,36.46
2018-07-09T13:16:17.400Z,36.95
2018-07-09T13:18:47.190Z,36.19
2018-07-09T13:21:19.010Z,35.69
2018-07-09T13:23:49.141Z,36.20
2018-07-09T13:26:20.686Z,37.68
2018-07-09T13:28:50.810Z,37.63
2018-07-09T13:31:20.013Z,37.48
2018-07-09T13:33:49.424Z,36.72
2018-07-09T13:36:19.698Z,36.54
2018-07-09T13:38:50.032Z,35.98
2018-07-09T13:41:20.029Z,36.75
2018-07-09T13:43:49.134Z,36.83
2018-07-09T13:46:18.407Z,36.47
2018-07-09T13:48:47.894Z,36.41
2018-07-09T13:51:17.801Z,37.00
2018-07-09T13:53:47.009Z,36.94
2018-07-09T13:56:16.126Z,36.59
2018-07-09T13:58:45.709Z,37.00
2018-07-09T14:01:16.121Z,35.82
2018-07-09T14:03:45.422Z,35.79
2018-07-09T14:06:15.405Z,36.52
2018-07-09T14:08:44.567Z,36.85
2018-07-09T14:11:13.684Z,36.20
2018-07-09T14:13:43.801Z,35.41
2018-07-09T14:17:42.670Z,35.27
2018-07-09T14:20:27.869Z,34.71
2018-07-09T14:22:57.970Z,34.92
2018-07-09T14:25:28.062Z,35.40
2018-07-09T14:27:57.475Z,34.33
2018-07-09T14:30:26.629Z,34.24
2018-07-09T14:32:55.915Z,34.44
2018-07-09T14:35:26.069Z,33.64
2018-07-09T14:37:55.455Z,34.11
2018-07-09T14:40:24.821Z,33.55
2018-07-09T14:42:54.633Z,33.12
2018-07-09T14:45:24.062Z,32.75
2018-07-09T14:47:53.335Z,33.25
2018-07-09T14:50:22.724Z,33.10
2018-07-09T14:52:51.813Z,33.34
2018-07-09T14:55:22.187Z,32.55
2018-07-09T14:57:52.068Z,33.36
2018-07-09T15:00:21.165Z,33.16
2018-07-09T15:02:50.244Z,33.48
2018-07-09T15:05:19.738Z,33.16
2018-07-09T15:07:48.840Z,32.83
2018-07-09T15:10:18.018Z,32.44
2018-07-09T15:12:47.956Z,32.67
2018-07-09T15:15:18.896Z,33.05
2018-07-09T15:17:48.376Z,31.89
2018-07-09T15:20:19.336Z,30.90
2018-07-09T15:22:49.636Z,30.87
2018-07-09T15:25:18.668Z,30.06
2018-07-09T15:27:47.849Z,28.98
2018-07-09T15:30:17.274Z,28.52
2018-07-09T15:32:46.713Z,28.35
2018-07-09T15:35:17.141Z,28.60
2018-07-09T15:37:46.971Z,29.26
2018-07-09T15:40:17.391Z,29.40
2018-07-09T15:42:46.495Z,29.56
2018-07-09T15:45:15.625Z,29.43
2018-07-09T15:47:45.008Z,29.30
2018-07-09T15:50:14.124Z,29.13
2018-07-09T15:52:43.314Z,29.58
2018-07-09T15:55:12.745Z,29.49
2018-07-09T15:57:41.820Z,29.52
2018-07-09T16:00:10.954Z,29.43
2018-07-09T16:02:40.059Z,29.63
2018-07-09T16:05:09.267Z,28.85
2018-07-09T16:07:39.341Z,28.54
2018-07-09T16:10:08.798Z,29.01
2018-07-09T16:12:37.887Z,29.52
2018-07-09T16:15:07.869Z,29.34
2018-07-09T16:17:37.609Z,28.88
2018-07-09T16:20:06.726Z,29.21
2018-07-09T16:22:35.805Z,29.07
2018-07-09T16:25:05.312Z,29.32
2018-07-09T16:27:34.459Z,29.23
2018-07-09T16:30:03.877Z,29.21
2018-07-09T16:32:33.213Z,29.06
2018-07-09T16:35:03.204Z,29.06
2018-07-09T16:37:32.321Z,29.49
2018-07-09T16:40:01.418Z,29.40
2018-07-09T16:42:30.769Z,29.54
2018-07-09T16:44:59.933Z,29.43
2018-07-09T16:47:29.085Z,29.65
2018-07-09T16:49:59.349Z,29.44
2018-07-09T16:52:28.401Z,28.74
2018-07-09T16:54:57.511Z,28.32
2018-07-09T16:57:28.289Z,28.29
2018-07-09T16:59:57.798Z,27.98
2018-07-09T17:02:26.917Z,27.84
2018-07-09T17:04:56.033Z,27.51
2018-07-09T17:07:25.099Z,27.34
2018-07-09T17:09:55.266Z,27.59
2018-07-09T17:12:24.765Z,27.71
2018-07-09T17:14:54.153Z,27.67
2018-07-09T17:17:23.176Z,27.88
2018-07-09T17:19:52.661Z,27.52
2018-07-09T17:22:21.894Z,27.61
2018-07-09T17:24:50.976Z,27.48
2018-07-09T17:27:20.151Z,27.12
2018-07-09T17:29:49.262Z,27.50
2018-07-09T17:32:18.429Z,27.62
2018-07-09T17:34:48.502Z,27.40
2018-07-09T17:37:17.608Z,27.59
2018-07-09T17:39:46.708Z,27.48
2018-07-09T17:42:15.769Z,27.54
2018-07-09T17:44:44.853Z,27.34
2018-07-09T17:47:14.057Z,27.33
2018-07-09T17:49:43.476Z,26.98
2018-07-09T17:52:12.545Z,26.99
2018-07-09T17:54:41.758Z,27.15
2018-07-09T17:57:10.890Z,27.04
2018-07-09T17:59:40.069Z,26.88
2018-07-09T18:02:09.176Z,26.99
2018-07-09T18:04:38.309Z,26.78
2018-07-09T18:07:07.507Z,26.93
2018-07-09T18:09:36.631Z,26.94
2018-07-09T18:12:06.542Z,26.88
2018-07-09T18:14:35.712Z,26.68
2018-07-09T18:17:04.954Z,26.44
2018-07-09T18:19:34.364Z,26.61
2018-07-09T18:22:03.449Z,26.28
2018-07-09T18:24:32.677Z,26.33
2018-07-09T18:27:02.293Z,26.12
2018-07-09T18:29:31.429Z,25.91
2018-07-09T18:32:00.553Z,26.08
2018-07-09T18:34:31.052Z,26.05
2018-07-09T18:37:00.160Z,25.87
2018-07-09T18:39:29.260Z,25.93
2018-07-09T18:41:58.769Z,25.87
2018-07-09T18:44:27.886Z,25.76
2018-07-09T18:46:57.108Z,25.46
2018-07-09T18:49:26.193Z,25.21
2018-07-09T18:51:55.296Z,25.27
2018-07-09T18:54:24.437Z,25.17
2018-07-09T18:56:54.301Z,25.23
2018-07-09T18:59:23.585Z,24.76
2018-07-09T19:01:52.732Z,24.51
2018-07-09T19:04:21.852Z,24.59
2018-07-09T19:07:11.376Z,24.61
2018-07-09T19:09:41.156Z,24.39
2018-07-09T19:12:10.313Z,24.32
2018-07-09T19:14:43.461Z,24.37
2018-07-09T19:18:27.379Z,24.47
2018-07-09T19:21:40.846Z,24.28
2018-07-09T19:24:10.605Z,24.10
2018-07-09T19:26:38.745Z,24.04
2018-07-09T19:29:06.554Z,23.89
2018-07-09T19:31:35.049Z,23.77
2018-07-09T19:34:03.324Z,23.52
2018-07-09T19:36:31.177Z,23.40
2018-07-09T19:39:00.124Z,23.20
2018-07-09T19:41:28.185Z,23.00
2018-07-09T19:43:58.160Z,22.92
2018-07-09T19:46:28.704Z,22.81
2018-07-09T19:48:58.513Z,22.71
2018-07-09T19:51:27.909Z,22.68
2018-07-09T19:54:00.629Z,22.58
2018-07-09T19:56:28.288Z,22.43
2018-07-09T19:58:55.869Z,22.42
2018-07-09T20:01:23.432Z,22.29
2018-07-09T20:03:50.956Z,22.15
2018-07-09T20:06:18.496Z,22.02
2018-07-09T20:08:51.361Z,21.89
2018-07-09T20:11:24.167Z,21.88
2018-07-09T20:14:07.978Z,21.87
2018-07-09T20:16:40.677Z,21.85
2018-07-09T20:19:10.674Z,21.86
2018-07-09T20:21:38.296Z,21.90
2018-07-09T20:24:05.825Z,21.85
2018-07-09T20:26:33.404Z,21.88
2018-07-09T20:29:00.979Z,21.80
2018-07-09T20:31:29.193Z,21.83
2018-07-09T20:33:57.661Z,21.73
2018-07-09T20:36:26.089Z,21.65
2018-07-09T20:38:53.661Z,21.58
2018-07-09T20:41:21.446Z,21.54
2018-07-09T20:43:50.968Z,21.39
2018-07-09T20:46:18.545Z,21.30
2018-07-09T20:48:49.387Z,21.21
2018-07-09T20:51:17.665Z,21.04
2018-07-09T20:53:47.550Z,20.97
2018-07-09T20:56:15.877Z,20.86
2018-07-09T20:58:43.553Z,20.73
2018-07-09T21:01:11.182Z,20.66
2018-07-09T21:03:39.996Z,20.60
2018-07-09T21:06:08.035Z,20.54
2018-07-09T21:08:36.548Z,20.46
2018-07-09T21:11:05.408Z,20.37
2018-07-09T21:13:33.713Z,20.28
2018-07-09T21:16:02.211Z,20.12
2018-07-09T21:18:29.937Z,20.16
2018-07-09T21:21:01.618Z,20.21
2018-07-09T21:23:30.409Z,20.24
2018-07-09T21:25:58.241Z,20.23
2018-07-09T21:28:27.308Z,20.16
2018-07-09T21:30:55.941Z,20.16
2018-07-09T21:33:24.585Z,20.18
2018-07-09T21:35:53.838Z,20.25
2018-07-09T21:38:21.439Z,20.16
2018-07-09T21:40:49.724Z,20.09
2018-07-09T21:43:18.282Z,20.04
2018-07-09T21:45:46.124Z,20.02
2018-07-09T21:48:15.087Z,20.02
2018-07-09T21:50:42.677Z,19.99
2018-07-09T21:53:10.446Z,19.91
2018-07-09T21:55:38.484Z,19.91
2018-07-09T21:58:06.258Z,19.78
2018-07-09T22:00:33.808Z,19.79
2018-07-09T22:03:03.013Z,19.82
2018-07-09T22:05:33.192Z,19.86
2018-07-09T22:08:01.285Z,19.85
2018-07-09T22:10:30.147Z,19.87
2018-07-09T22:12:57.985Z,19.99
2018-07-09T22:15:27.388Z,19.95
2018-07-09T22:17:55.257Z,19.86
2018-07-09T22:20:23.105Z,19.78
2018-07-09T22:22:51.168Z,19.66
2018-07-09T22:25:18.760Z,19.57
2018-07-09T22:27:46.666Z,19.50
2018-07-09T22:30:20.408Z,19.40
2018-07-09T22:32:53.353Z,19.38
2018-07-09T22:35:31.065Z,19.34
2018-07-09T22:38:01.413Z,19.35
2018-07-09T22:40:31.845Z,19.28
2018-07-09T22:43:16.294Z,19.21
2018-07-09T22:45:46.930Z,19.13
2018-07-09T22:48:17.504Z,19.11
2018-07-09T22:50:47.628Z,19.07
2018-07-09T22:53:17.552Z,19.09
2018-07-09T22:56:11.611Z,19.12
2018-07-09T22:58:48.145Z,19.16
2018-07-09T23:01:19.536Z,19.15
2018-07-09T23:03:50.736Z,19.17
2018-07-09T23:06:23.872Z,19.15
2018-07-09T23:14:04.032Z,19.01
2018-07-09T23:16:51.312Z,18.85
2018-07-09T23:22:18.029Z,18.70
2018-07-09T23:24:45.584Z,18.67
2018-07-09T23:27:13.135Z,18.56
2018-07-09T23:29:41.001Z,18.52
2018-07-09T23:32:08.562Z,18.50
2018-07-09T23:34:37.248Z,18.44
2018-07-09T23:37:04.867Z,18.44
2018-07-09T23:39:32.406Z,18.43
2018-07-09T23:41:59.971Z,18.41
2018-07-09T23:44:27.542Z,18.38
2018-07-09T23:46:55.128Z,18.36
2018-07-09T23:49:22.744Z,18.34
2018-07-09T23:51:50.296Z,18.32
2018-07-09T23:54:17.864Z,18.31
2018-07-09T23:57:15.700Z,18.24
